createdAt,value
2018-03-28T00:00:38.426Z,10.00
2018-03-28T00:03:06.732Z,9.60
2018-03-28T00:05:34.985Z,9.60
2018-03-28T00:08:03.279Z,11.07
2018-03-28T00:10:31.539Z,9.37
2018-03-28T00:12:59.773Z,12.00
2018-03-28T00:15:28.050Z,9.03
2018-03-28T00:17:57.186Z,9.57
2018-03-28T00:20:25.470Z,9.80
2018-03-28T00:22:53.748Z,10.63
2018-03-28T00:25:22.012Z,8.27
2018-03-28T00:27:50.394Z,10.80
2018-03-28T00:30:18.659Z,9.47
2018-03-28T00:32:47.681Z,10.00
2018-03-28T00:35:15.922Z,9.03
2018-03-28T00:37:44.599Z,9.90
2018-03-28T00:40:13.608Z,9.67
2018-03-28T00:42:42.643Z,11.00
2018-03-28T00:45:13.918Z,9.97
2018-03-28T00:47:42.171Z,10.27
2018-03-28T00:50:10.431Z,10.87
2018-03-28T00:52:38.665Z,9.70
2018-03-28T00:55:06.912Z,11.23
2018-03-28T00:57:35.178Z,11.50
2018-03-28T01:00:03.442Z,10.70
2018-03-28T01:02:31.714Z,11.37
2018-03-28T01:04:59.986Z,11.13
2018-03-28T01:07:28.893Z,11.90
2018-03-28T01:09:57.198Z,11.90
2018-03-28T01:12:25.457Z,11.70
2018-03-28T01:14:54.669Z,10.57
2018-03-28T01:17:23.242Z,10.10
2018-03-28T01:19:52.285Z,9.90
2018-03-28T01:22:21.418Z,10.13
2018-03-28T01:24:49.674Z,9.97
2018-03-28T01:27:18.717Z,9.47
2018-03-28T01:29:46.978Z,9.60
2018-03-28T01:32:15.242Z,9.63
2018-03-28T01:34:43.491Z,10.80
2018-03-28T01:37:12.530Z,10.17
2018-03-28T01:39:40.770Z,10.10
2018-03-28T01:42:09.032Z,10.00
2018-03-28T01:44:37.317Z,10.10
2018-03-28T01:47:06.323Z,10.43
2018-03-28T01:49:34.596Z,9.50
2018-03-28T01:52:02.850Z,10.30
2018-03-28T01:54:31.854Z,9.73
2018-03-28T01:57:00.900Z,8.37
2018-03-28T01:59:29.137Z,12.10
2018-03-28T02:01:58.167Z,9.97
2018-03-28T02:04:26.601Z,9.73
2018-03-28T02:06:55.631Z,10.90
2018-03-28T02:09:24.739Z,9.90
2018-03-28T02:11:53.273Z,9.67
2018-03-28T02:14:21.655Z,8.40
2018-03-28T02:16:50.678Z,9.17
2018-03-28T02:19:18.942Z,10.20
2018-03-28T02:21:47.224Z,8.30
2018-03-28T02:24:16.209Z,8.93
2018-03-28T02:26:44.459Z,9.43
2018-03-28T02:29:12.862Z,8.93
2018-03-28T02:31:41.153Z,8.07
2018-03-28T02:34:09.405Z,9.70
2018-03-28T02:36:38.426Z,10.27
2018-03-28T02:39:07.945Z,8.20
2018-03-28T02:41:36.246Z,8.70
2018-03-28T02:44:05.293Z,8.77
2018-03-28T02:46:34.323Z,9.20
2018-03-28T02:49:02.577Z,9.33
2018-03-28T02:51:30.851Z,10.10
2018-03-28T02:53:59.870Z,9.97
2018-03-28T02:56:28.099Z,9.53
2018-03-28T02:58:56.348Z,8.33
2018-03-28T03:01:24.583Z,8.30
2018-03-28T03:03:52.955Z,9.40
2018-03-28T03:06:21.974Z,8.77
2018-03-28T03:08:50.261Z,9.13
2018-03-28T03:11:18.492Z,9.90
2018-03-28T03:13:47.509Z,9.83
2018-03-28T03:16:16.524Z,8.43
2018-03-28T03:18:44.764Z,9.40
2018-03-28T03:21:13.839Z,10.40
2018-03-28T03:23:42.103Z,10.23
2018-03-28T03:26:10.389Z,9.80
2018-03-28T03:28:39.464Z,10.23
2018-03-28T03:31:07.948Z,10.07
2018-03-28T03:33:36.197Z,10.50
2018-03-28T03:36:05.070Z,10.10
2018-03-28T03:38:33.302Z,9.57
2018-03-28T03:41:01.573Z,10.50
2018-03-28T03:43:29.863Z,10.43
2018-03-28T03:45:59.726Z,10.93
2018-03-28T03:48:27.969Z,9.70
2018-03-28T03:50:56.268Z,11.57
2018-03-28T03:53:25.294Z,11.80
2018-03-28T03:55:53.552Z,10.33
2018-03-28T03:58:22.243Z,11.43
2018-03-28T04:00:50.472Z,10.90
2018-03-28T04:03:18.880Z,12.00
2018-03-28T04:05:47.450Z,12.37
2018-03-28T04:08:15.716Z,12.10
2018-03-28T04:10:43.991Z,11.80
2018-03-28T04:13:12.228Z,12.23
2018-03-28T04:15:40.513Z,35.20
2018-03-28T04:18:08.765Z,21.87
2018-03-28T04:20:37.788Z,13.77
2018-03-28T04:23:06.059Z,14.23
2018-03-28T04:25:34.327Z,11.47
2018-03-28T04:28:02.603Z,12.00
2018-03-28T04:30:30.891Z,11.10
2018-03-28T04:32:59.141Z,13.50
2018-03-28T04:35:27.398Z,13.63
2018-03-28T04:37:56.401Z,13.73
2018-03-28T04:40:25.583Z,14.90
2018-03-28T04:42:53.843Z,13.70
2018-03-28T04:45:22.129Z,14.33
2018-03-28T04:47:50.375Z,13.13
2018-03-28T04:50:18.646Z,15.10
2018-03-28T04:52:46.892Z,15.20
2018-03-28T04:55:15.916Z,17.00
2018-03-28T04:57:44.922Z,13.97
2018-03-28T05:00:13.218Z,14.97
2018-03-28T05:02:41.489Z,14.90
2018-03-28T05:05:09.718Z,17.37
2018-03-28T05:07:37.993Z,14.60
2018-03-28T05:10:07.012Z,14.47
2018-03-28T05:12:35.242Z,14.33
2018-03-28T05:15:03.522Z,15.80
2018-03-28T05:17:31.787Z,15.50
2018-03-28T05:20:00.017Z,16.37
2018-03-28T05:22:28.298Z,15.10
2018-03-28T05:24:56.933Z,15.37
2018-03-28T05:27:25.148Z,15.50
2018-03-28T05:29:53.410Z,16.50
2018-03-28T05:32:22.431Z,17.30
2018-03-28T05:34:50.688Z,15.23
2018-03-28T05:37:20.346Z,20.33
2018-03-28T05:39:48.673Z,18.33
2018-03-28T05:42:17.742Z,19.37
2018-03-28T05:44:45.948Z,18.97
2018-03-28T05:47:15.015Z,17.93
2018-03-28T05:49:43.304Z,19.33
2018-03-28T05:52:11.497Z,17.50
2018-03-28T05:54:39.749Z,17.03
2018-03-28T05:57:08.006Z,20.37
2018-03-28T05:59:36.318Z,18.33
2018-03-28T06:02:04.531Z,17.00
2018-03-28T06:04:32.807Z,15.70
2018-03-28T06:07:01.966Z,16.43
2018-03-28T06:09:30.199Z,16.80
2018-03-28T06:11:59.376Z,14.57
2018-03-28T06:14:27.624Z,15.60
2018-03-28T06:16:56.002Z,17.57
2018-03-28T06:19:25.027Z,15.27
2018-03-28T06:21:53.330Z,14.83
2018-03-28T06:24:23.146Z,21.07
2018-03-28T06:26:52.246Z,22.27
2018-03-28T06:29:20.555Z,19.63
2018-03-28T06:31:48.763Z,21.97
2018-03-28T06:34:17.013Z,22.60
2018-03-28T06:36:46.030Z,22.00
2018-03-28T06:39:14.292Z,21.27
2018-03-28T06:41:43.312Z,19.80
2018-03-28T06:44:11.582Z,21.57
2018-03-28T06:46:39.821Z,18.93
2018-03-28T06:49:08.094Z,20.50
2018-03-28T06:51:36.321Z,19.57
2018-03-28T06:54:04.643Z,18.17
2018-03-28T06:56:32.917Z,19.03
2018-03-28T06:59:02.606Z,18.87
2018-03-28T07:01:30.886Z,21.53
2018-03-28T07:03:59.148Z,20.37
2018-03-28T07:06:27.393Z,21.27
2018-03-28T07:08:56.105Z,18.80
2018-03-28T07:11:24.345Z,21.10
2018-03-28T07:13:52.679Z,18.83
2018-03-28T07:16:20.943Z,21.90
2018-03-28T07:18:49.196Z,20.07
2018-03-28T07:21:18.216Z,21.97
2018-03-28T07:23:46.492Z,22.77
2018-03-28T07:26:14.754Z,22.00
2018-03-28T07:28:44.062Z,22.50
2018-03-28T07:31:12.335Z,21.23
2018-03-28T07:33:40.634Z,21.77
2018-03-28T07:36:08.886Z,23.13
2018-03-28T07:38:38.027Z,22.47
2018-03-28T07:41:07.188Z,20.43
2018-03-28T07:43:37.042Z,18.57
2018-03-28T07:46:05.941Z,19.07
2018-03-28T07:48:34.225Z,19.10
2018-03-28T07:51:02.484Z,19.07
2018-03-28T07:53:30.766Z,19.30
2018-03-28T07:55:59.041Z,19.23
2018-03-28T07:58:27.312Z,18.37
2018-03-28T08:00:55.546Z,21.67
2018-03-28T08:03:23.825Z,21.83
2018-03-28T08:05:52.400Z,24.40
2018-03-28T08:08:22.415Z,26.57
2018-03-28T08:10:52.308Z,24.27
2018-03-28T08:13:20.575Z,25.90
2018-03-28T08:15:48.850Z,25.20
2018-03-28T08:18:17.133Z,26.93
2018-03-28T08:20:46.162Z,23.87
2018-03-28T08:23:15.253Z,24.80
2018-03-28T08:25:43.524Z,24.57
2018-03-28T08:28:11.747Z,28.43
2018-03-28T08:30:40.045Z,19.43
2018-03-28T08:33:08.302Z,22.20
2018-03-28T08:35:36.561Z,22.17
2018-03-28T08:38:04.842Z,20.90
2018-03-28T08:40:33.111Z,20.97
2018-03-28T08:43:02.128Z,21.63
2018-03-28T08:45:30.379Z,21.57
2018-03-28T08:47:58.659Z,20.10
2018-03-28T08:50:27.700Z,19.37
2018-03-28T08:52:57.171Z,19.27
2018-03-28T08:55:25.465Z,18.20
2018-03-28T08:57:53.765Z,20.00
2018-03-28T09:00:22.068Z,20.23
2018-03-28T09:02:51.126Z,19.43
2018-03-28T09:05:19.383Z,20.70
2018-03-28T09:07:47.641Z,21.73
2018-03-28T09:10:16.673Z,23.90
2018-03-28T09:12:44.973Z,20.73
2018-03-28T09:15:13.836Z,24.00
2018-03-28T09:17:42.832Z,21.80
2018-03-28T09:20:11.072Z,22.87
2018-03-28T09:22:40.103Z,21.33
2018-03-28T09:25:08.388Z,22.90
2018-03-28T09:27:36.638Z,25.83
2018-03-28T09:30:05.660Z,22.57
2018-03-28T09:32:33.926Z,24.67
2018-03-28T09:35:02.223Z,23.77
2018-03-28T09:37:30.652Z,22.80
2018-03-28T09:39:58.934Z,23.00
2018-03-28T09:42:27.157Z,23.90
2018-03-28T09:44:55.468Z,22.50
2018-03-28T09:47:23.793Z,22.30
2018-03-28T09:49:52.060Z,23.40
2018-03-28T09:52:20.314Z,25.50
2018-03-28T09:54:49.343Z,22.40
2018-03-28T09:57:18.339Z,22.90
2018-03-28T09:59:47.389Z,23.07
2018-03-28T10:02:15.635Z,24.03
2018-03-28T10:04:49.750Z,21.53
2018-03-28T10:07:18.059Z,22.80
2018-03-28T10:09:46.361Z,23.10
2018-03-28T10:12:14.634Z,25.17
2018-03-28T10:14:43.736Z,25.10
2018-03-28T10:17:11.985Z,24.27
2018-03-28T10:19:40.244Z,24.90
2018-03-28T10:22:08.527Z,21.63
2018-03-28T10:24:36.847Z,22.93
2018-03-28T10:27:05.124Z,20.77
2018-03-28T10:29:34.134Z,24.87
2018-03-28T10:32:03.328Z,22.23
2018-03-28T10:34:32.659Z,22.97
2018-03-28T10:37:01.017Z,22.50
2018-03-28T10:39:29.346Z,24.10
2018-03-28T10:41:57.625Z,23.30
2018-03-28T10:44:26.725Z,20.77
2018-03-28T10:46:55.706Z,24.03
2018-03-28T10:49:24.005Z,20.90
2018-03-28T10:51:52.296Z,20.90
2018-03-28T10:54:21.326Z,24.17
2018-03-28T10:56:49.610Z,24.70
2018-03-28T10:59:17.878Z,25.20
2018-03-28T11:01:46.135Z,24.70
2018-03-28T11:04:14.463Z,24.23
2018-03-28T11:06:42.719Z,25.43
2018-03-28T11:09:10.979Z,26.30
2018-03-28T11:11:39.318Z,23.63
2018-03-28T11:14:07.596Z,27.23
2018-03-28T11:16:35.873Z,24.63
2018-03-28T11:19:04.950Z,22.33
2018-03-28T11:21:33.229Z,28.60
2018-03-28T11:24:01.533Z,24.47
2018-03-28T11:26:29.766Z,24.17
2018-03-28T11:28:58.055Z,27.40
2018-03-28T11:31:26.359Z,27.30
2018-03-28T11:33:54.666Z,25.13
2018-03-28T11:36:22.946Z,25.00
2018-03-28T11:38:51.955Z,22.47
2018-03-28T11:41:20.201Z,24.77
2018-03-28T11:43:49.234Z,21.70
2018-03-28T11:46:17.869Z,23.83
2018-03-28T11:48:46.093Z,22.70
2018-03-28T11:51:14.436Z,20.63
2018-03-28T11:53:42.741Z,21.60
2018-03-28T11:56:11.020Z,22.70
2018-03-28T11:58:39.298Z,22.93
2018-03-28T12:01:07.547Z,20.13
2018-03-28T12:03:36.597Z,20.83
2018-03-28T12:06:05.606Z,20.13
2018-03-28T12:08:34.776Z,22.57
2018-03-28T12:11:03.086Z,18.87
2018-03-28T12:13:31.362Z,20.07
2018-03-28T12:16:00.801Z,21.60
2018-03-28T12:18:29.144Z,20.20
2018-03-28T12:20:58.137Z,18.87
2018-03-28T12:23:27.256Z,19.00
2018-03-28T12:25:56.284Z,20.07
2018-03-28T12:28:27.606Z,22.40
2018-03-28T12:30:55.852Z,22.60
2018-03-28T12:33:24.124Z,21.37
2018-03-28T12:35:52.389Z,22.20
2018-03-28T12:38:20.658Z,20.13
2018-03-28T12:40:49.485Z,23.77
2018-03-28T12:43:17.736Z,21.23
2018-03-28T12:45:46.016Z,21.83
2018-03-28T12:48:15.772Z,23.30
2018-03-28T12:50:43.995Z,23.77
2018-03-28T12:53:12.291Z,23.60
2018-03-28T12:55:40.591Z,23.90
2018-03-28T12:58:09.406Z,26.83
2018-03-28T13:00:38.459Z,26.37
2018-03-28T13:03:06.740Z,25.37
2018-03-28T13:05:35.014Z,24.23
2018-03-28T13:08:03.349Z,25.60
2018-03-28T13:10:32.768Z,24.93
2018-03-28T13:13:01.042Z,25.60
2018-03-28T13:15:29.319Z,23.77
2018-03-28T13:17:57.600Z,26.93
2018-03-28T13:20:25.893Z,25.20
2018-03-28T13:22:54.172Z,23.33
2018-03-28T13:25:22.493Z,24.20
2018-03-28T13:27:51.544Z,24.60
2018-03-28T13:30:19.827Z,26.20
2018-03-28T13:32:48.131Z,30.20
2018-03-28T13:35:16.412Z,39.37
2018-03-28T13:37:44.687Z,24.87
2018-03-28T13:40:13.754Z,25.30
2018-03-28T13:42:42.035Z,26.47
2018-03-28T13:45:10.355Z,27.17
2018-03-28T13:47:39.471Z,29.23
2018-03-28T13:50:07.734Z,26.57
2018-03-28T13:52:36.815Z,23.70
2018-03-28T13:55:05.073Z,24.93
2018-03-28T13:57:33.375Z,24.80
2018-03-28T14:00:01.665Z,21.37
2018-03-28T14:02:31.051Z,24.00
2018-03-28T14:04:59.296Z,20.30
2018-03-28T14:07:27.570Z,23.30
2018-03-28T14:09:55.896Z,20.80
2018-03-28T14:12:24.170Z,18.40
2018-03-28T14:14:52.431Z,21.43
2018-03-28T14:17:21.490Z,18.80
2018-03-28T14:19:49.746Z,14.77
2018-03-28T14:22:18.058Z,14.90
2018-03-28T14:24:46.292Z,11.03
2018-03-28T14:27:15.296Z,11.97
2018-03-28T14:29:45.111Z,11.13
2018-03-28T14:32:13.764Z,9.43
2018-03-28T14:34:41.988Z,8.33
2018-03-28T14:37:10.294Z,9.97
2018-03-28T14:39:38.942Z,9.43
2018-03-28T14:42:07.952Z,10.63
2018-03-28T14:44:36.253Z,9.13
2018-03-28T14:47:05.403Z,10.57
2018-03-28T14:49:34.412Z,10.13
2018-03-28T14:52:02.731Z,10.80
2018-03-28T14:54:30.984Z,11.67
2018-03-28T14:57:00.130Z,12.80
2018-03-28T14:59:28.444Z,9.77
2018-03-28T15:01:59.057Z,9.13
2018-03-28T15:04:27.330Z,10.37
2018-03-28T15:06:55.676Z,9.17
2018-03-28T15:09:23.959Z,8.80
2018-03-28T15:11:52.229Z,8.50
2018-03-28T15:14:20.727Z,6.17
2018-03-28T15:16:48.957Z,5.73
2018-03-28T15:19:17.410Z,6.60
2018-03-28T15:21:46.472Z,4.97
2018-03-28T15:24:14.871Z,5.20
2018-03-28T15:26:43.122Z,4.83
2018-03-28T15:29:11.387Z,5.10
2018-03-28T15:31:39.646Z,5.40
2018-03-28T15:34:09.290Z,5.20
2018-03-28T15:36:38.315Z,5.07
2018-03-28T15:39:06.580Z,5.83
2018-03-28T15:41:36.212Z,5.80
2018-03-28T15:44:04.485Z,6.07
2018-03-28T15:46:33.544Z,7.73
2018-03-28T15:49:01.837Z,9.87
2018-03-28T15:51:31.022Z,8.40
2018-03-28T15:53:59.294Z,6.13
2018-03-28T15:56:27.619Z,11.73
2018-03-28T15:58:56.700Z,7.73
2018-03-28T16:01:25.682Z,6.10
2018-03-28T16:03:53.946Z,5.60
2018-03-28T16:06:22.289Z,7.50
2018-03-28T16:08:50.574Z,4.40
2018-03-28T16:11:19.179Z,5.70
2018-03-28T16:13:47.411Z,5.90
2018-03-28T16:16:16.490Z,4.40
2018-03-28T16:18:44.772Z,5.07
2018-03-28T16:21:13.814Z,5.30
2018-03-28T16:23:42.115Z,4.40
2018-03-28T16:26:10.379Z,4.80
2018-03-28T16:28:38.661Z,5.63
2018-03-28T16:31:06.925Z,4.80
2018-03-28T16:33:35.291Z,5.40
2018-03-28T16:36:04.640Z,5.00
2018-03-28T16:38:32.919Z,5.13
2018-03-28T16:41:02.015Z,5.57
2018-03-28T16:43:30.264Z,4.50
2018-03-28T16:45:58.628Z,5.20
2018-03-28T16:48:26.930Z,5.03
2018-03-28T16:50:55.237Z,5.07
2018-03-28T16:53:23.495Z,4.97
2018-03-28T16:55:51.751Z,5.70
2018-03-28T16:58:20.030Z,6.00
2018-03-28T17:00:48.903Z,6.00
2018-03-28T17:03:18.000Z,8.43
2018-03-28T17:05:47.804Z,4.73
2018-03-28T17:08:16.113Z,5.50
2018-03-28T17:10:45.234Z,5.03
2018-03-28T17:13:14.260Z,5.00
2018-03-28T17:15:43.667Z,5.87
2018-03-28T17:18:12.695Z,4.97
2018-03-28T17:20:41.047Z,4.63
2018-03-28T17:23:09.311Z,5.37
2018-03-28T17:25:37.628Z,5.10
2018-03-28T17:28:05.884Z,5.13
2018-03-28T17:30:34.172Z,6.07
2018-03-28T17:33:02.422Z,5.80
2018-03-28T17:35:32.711Z,6.80
2018-03-28T17:38:00.961Z,5.83
2018-03-28T17:40:29.262Z,5.60
2018-03-28T17:42:57.576Z,8.03
2018-03-28T17:45:26.111Z,5.67
2018-03-28T17:47:54.397Z,5.90
2018-03-28T17:50:22.647Z,5.87
2018-03-28T17:52:50.965Z,6.50
2018-03-28T17:55:19.230Z,6.10
2018-03-28T17:57:47.498Z,6.20
2018-03-28T18:00:15.755Z,6.40
2018-03-28T18:02:44.033Z,6.13
2018-03-28T18:05:12.350Z,6.50
2018-03-28T18:07:40.640Z,5.87
2018-03-28T18:10:08.949Z,6.67
2018-03-28T18:12:37.313Z,6.10
2018-03-28T18:15:05.623Z,5.37
2018-03-28T18:17:34.645Z,6.20
2018-03-28T18:20:02.936Z,5.53
2018-03-28T18:22:31.291Z,6.07
2018-03-28T18:24:59.571Z,6.40
2018-03-28T18:27:27.973Z,4.80
2018-03-28T18:29:56.289Z,6.13
2018-03-28T18:32:25.350Z,5.60
2018-03-28T18:34:53.643Z,5.37
2018-03-28T18:37:22.511Z,5.77
2018-03-28T18:39:50.862Z,5.57
2018-03-28T18:42:19.184Z,6.17
2018-03-28T18:44:47.431Z,6.57
2018-03-28T18:47:15.712Z,7.53
2018-03-28T18:49:44.883Z,7.10
2018-03-28T18:52:13.186Z,5.67
2018-03-28T18:54:42.640Z,5.50
2018-03-28T18:57:12.298Z,5.07
2018-03-28T18:59:40.577Z,5.77
2018-03-28T19:02:08.871Z,5.63
2018-03-28T19:04:37.147Z,5.93
2018-03-28T19:07:05.446Z,6.67
2018-03-28T19:09:33.773Z,4.97
2018-03-28T19:12:02.903Z,6.60
2018-03-28T19:14:31.284Z,6.90
2018-03-28T19:16:59.576Z,5.60
2018-03-28T19:19:27.972Z,5.90
2018-03-28T19:21:57.038Z,5.90
2018-03-28T19:24:25.388Z,6.00
2018-03-28T19:26:53.812Z,6.27
2018-03-28T19:29:22.124Z,6.27
2018-03-28T19:31:50.422Z,7.27
2018-03-28T19:34:18.839Z,6.87
2018-03-28T19:36:48.110Z,7.20
2018-03-28T19:39:16.601Z,8.07
2018-03-28T19:41:44.956Z,9.30
2018-03-28T19:44:13.230Z,3.40
2018-03-28T19:46:41.559Z,4.13
2018-03-28T19:49:09.796Z,3.73
2018-03-28T19:51:38.084Z,3.23
2018-03-28T19:54:06.392Z,3.87
2018-03-28T19:56:34.803Z,5.10
2018-03-28T19:59:03.114Z,6.10
2018-03-28T20:01:31.424Z,7.50
2018-03-28T20:03:59.751Z,9.43
2018-03-28T20:06:28.047Z,8.33
2018-03-28T20:08:56.356Z,8.63
2018-03-28T20:11:24.922Z,8.63
2018-03-28T20:13:53.437Z,7.50
2018-03-28T20:16:22.539Z,8.30
2018-03-28T20:18:50.964Z,8.00
2018-03-28T20:21:20.187Z,8.37
2018-03-28T20:23:48.465Z,6.13
2018-03-28T20:26:16.767Z,5.90
2018-03-28T20:28:45.110Z,4.90
2018-03-28T20:31:13.434Z,5.50
2018-03-28T20:33:42.876Z,5.43
2018-03-28T20:36:11.945Z,4.93
2018-03-28T20:38:40.233Z,5.23
2018-03-28T20:41:08.504Z,4.87
2018-03-28T20:43:37.608Z,5.80
2018-03-28T20:46:06.658Z,6.00
2018-03-28T20:48:34.916Z,5.53
2018-03-28T20:51:03.208Z,5.40
2018-03-28T20:53:31.833Z,7.47
2018-03-28T20:56:00.642Z,8.00
2018-03-28T20:58:28.984Z,8.60
2018-03-28T21:00:57.282Z,11.00
2018-03-28T21:03:25.548Z,12.07
2018-03-28T21:05:54.876Z,11.57
2018-03-28T21:08:23.890Z,12.00
2018-03-28T21:10:52.755Z,14.40
2018-03-28T21:13:21.015Z,16.20
2018-03-28T21:15:49.313Z,16.50
2018-03-28T21:18:18.628Z,20.10
2018-03-28T21:20:47.665Z,19.67
2018-03-28T21:23:16.823Z,20.50
2018-03-28T21:25:45.855Z,20.60
2018-03-28T21:28:14.095Z,21.60
2018-03-28T21:30:42.403Z,21.37
2018-03-28T21:33:10.660Z,21.40
2018-03-28T21:35:38.988Z,20.37
2018-03-28T21:38:07.218Z,20.33
2018-03-28T21:40:35.510Z,21.97
2018-03-28T21:43:04.541Z,20.20
2018-03-28T21:45:32.788Z,20.67
2018-03-28T21:48:01.063Z,22.07
2018-03-28T21:50:29.358Z,20.90
2018-03-28T21:52:58.427Z,21.90
2018-03-28T21:55:26.715Z,23.10
2018-03-28T21:57:54.980Z,23.00
2018-03-28T22:00:23.584Z,23.53
2018-03-28T22:02:52.363Z,22.27
2018-03-28T22:05:24.061Z,21.20
2018-03-28T22:07:54.522Z,17.03
2018-03-28T22:10:22.852Z,19.43
2018-03-28T22:12:52.076Z,20.60
2018-03-28T22:15:20.355Z,20.33
2018-03-28T22:17:48.670Z,24.17
2018-03-28T22:20:17.033Z,23.97
2018-03-28T22:22:46.199Z,22.50
2018-03-28T22:25:15.464Z,25.70
2018-03-28T22:27:43.759Z,24.10
2018-03-28T22:30:12.370Z,25.00
2018-03-28T22:32:40.666Z,24.30
2018-03-28T22:35:09.681Z,23.50
2018-03-28T22:37:37.963Z,23.57
2018-03-28T22:40:06.976Z,20.83
2018-03-28T22:42:35.259Z,21.50
2018-03-28T22:45:04.628Z,19.97
2018-03-28T22:47:32.876Z,19.33
2018-03-28T22:50:01.139Z,19.87
2018-03-28T22:52:29.402Z,17.07
2018-03-28T22:54:58.115Z,19.00
2018-03-28T22:57:26.354Z,16.70
2018-03-28T22:59:55.085Z,16.93
2018-03-28T23:02:23.347Z,16.63
2018-03-28T23:04:51.626Z,14.20
2018-03-28T23:07:20.968Z,17.43
2018-03-28T23:09:49.230Z,12.53
2018-03-28T23:12:17.549Z,13.10
2018-03-28T23:14:45.787Z,14.60
2018-03-28T23:17:15.563Z,15.27
2018-03-28T23:19:44.631Z,14.70
2018-03-28T23:22:24.782Z,14.10
2018-03-28T23:24:53.100Z,14.53
2018-03-28T23:27:21.375Z,14.03
2018-03-28T23:29:49.737Z,16.13
2018-03-28T23:32:18.039Z,21.67
2018-03-28T23:34:46.324Z,21.40
2018-03-28T23:37:14.604Z,24.83
2018-03-28T23:39:42.884Z,27.10
2018-03-28T23:42:11.125Z,28.53
2018-03-28T23:44:39.395Z,29.50
2018-03-28T23:47:07.626Z,31.87
2018-03-28T23:49:36.700Z,27.40
2018-03-28T23:52:04.966Z,26.97
2018-03-28T23:54:33.223Z,28.30
2018-03-28T23:57:01.512Z,22.33
2018-03-28T23:59:29.774Z,19.10
